sensor_id;sensor_type;location;lat;lon;timestamp;P1;P2;P0
64631;PMS5003;58358;50.936;0.246;2022-12-18T00:01:21;77;63;
64631;PMS5003;58358;50.936;0.246;2022-12-18T00:03:46;67;61;
64631;PMS5003;58358;50.936;0.246;2022-12-18T00:06:11;62;53;
64631;PMS5003;58358;50.936;0.246;2022-12-18T00:08:37;66;58;
64631;PMS5003;58358;50.936;0.246;2022-12-18T00:11:03;63;56;
64631;PMS5003;58358;50.936;0.246;2022-12-18T00:13:28;61;57;
64631;PMS5003;58358;50.936;0.246;2022-12-18T00:15:53;71;58;
64631;PMS5003;58358;50.936;0.246;2022-12-18T00:18:19;60;56;
64631;PMS5003;58358;50.936;0.246;2022-12-18T00:20:45;59;51;
64631;PMS5003;58358;50.936;0.246;2022-12-18T00:23:10;61;48;
64631;PMS5003;58358;50.936;0.246;2022-12-18T00:25:36;65;54;
64631;PMS5003;58358;50.936;0.246;2022-12-18T00:28:01;62;55;
64631;PMS5003;58358;50.936;0.246;2022-12-18T00:30:27;62;51;
64631;PMS5003;58358;50.936;0.246;2022-12-18T00:32:53;64;53;
64631;PMS5003;58358;50.936;0.246;2022-12-18T00:35:18;53;42;
64631;PMS5003;58358;50.936;0.246;2022-12-18T00:37:43;57;52;
64631;PMS5003;58358;50.936;0.246;2022-12-18T00:40:09;54;45;
64631;PMS5003;58358;50.936;0.246;2022-12-18T00:42:34;53;45;
64631;PMS5003;58358;50.936;0.246;2022-12-18T00:44:59;53;41;
64631;PMS5003;58358;50.936;0.246;2022-12-18T00:47:24;43;40;
64631;PMS5003;58358;50.936;0.246;2022-12-18T00:49:50;46;41;
64631;PMS5003;58358;50.936;0.246;2022-12-18T00:52:15;49;46;
64631;PMS5003;58358;50.936;0.246;2022-12-18T00:54:41;49;41;
64631;PMS5003;58358;50.936;0.246;2022-12-18T00:57:07;50;42;
64631;PMS5003;58358;50.936;0.246;2022-12-18T00:59:32;45;39;
64631;PMS5003;58358;50.936;0.246;2022-12-18T01:01:57;40;36;
64631;PMS5003;58358;50.936;0.246;2022-12-18T01:04:22;33;31;
64631;PMS5003;58358;50.936;0.246;2022-12-18T01:06:47;50;42;
64631;PMS5003;58358;50.936;0.246;2022-12-18T01:09:13;50;48;
64631;PMS5003;58358;50.936;0.246;2022-12-18T01:11:38;44;36;
64631;PMS5003;58358;50.936;0.246;2022-12-18T01:14:04;45;38;
64631;PMS5003;58358;50.936;0.246;2022-12-18T01:16:29;47;36;
64631;PMS5003;58358;50.936;0.246;2022-12-18T01:18:54;41;36;
64631;PMS5003;58358;50.936;0.246;2022-12-18T01:21:20;48;39;
64631;PMS5003;58358;50.936;0.246;2022-12-18T01:23:45;45;38;
64631;PMS5003;58358;50.936;0.246;2022-12-18T01:26:11;41;34;
64631;PMS5003;58358;50.936;0.246;2022-12-18T01:28:35;44;37;
64631;PMS5003;58358;50.936;0.246;2022-12-18T01:33:27;52;44;
64631;PMS5003;58358;50.936;0.246;2022-12-18T01:35:53;47;41;
64631;PMS5003;58358;50.936;0.246;2022-12-18T01:38:20;49;44;
64631;PMS5003;58358;50.936;0.246;2022-12-18T01:40:44;39;35;
64631;PMS5003;58358;50.936;0.246;2022-12-18T01:43:09;46;43;
64631;PMS5003;58358;50.936;0.246;2022-12-18T01:45:35;45;39;
64631;PMS5003;58358;50.936;0.246;2022-12-18T01:48:00;40;35;
64631;PMS5003;58358;50.936;0.246;2022-12-18T01:50:28;45;39;
64631;PMS5003;58358;50.936;0.246;2022-12-18T01:52:51;41;40;
64631;PMS5003;58358;50.936;0.246;2022-12-18T01:55:19;39;34;
64631;PMS5003;58358;50.936;0.246;2022-12-18T01:57:43;45;39;
64631;PMS5003;58358;50.936;0.246;2022-12-18T02:00:09;39;35;
64631;PMS5003;58358;50.936;0.246;2022-12-18T02:02:32;31;29;
64631;PMS5003;58358;50.936;0.246;2022-12-18T02:04:57;43;38;
64631;PMS5003;58358;50.936;0.246;2022-12-18T02:07:25;44;36;
64631;PMS5003;58358;50.936;0.246;2022-12-18T02:09:49;50;36;
64631;PMS5003;58358;50.936;0.246;2022-12-18T02:12:16;44;34;
64631;PMS5003;58358;50.936;0.246;2022-12-18T02:14:43;42;36;
64631;PMS5003;58358;50.936;0.246;2022-12-18T02:17:07;39;31;
64631;PMS5003;58358;50.936;0.246;2022-12-18T02:19:39;45;35;
64631;PMS5003;58358;50.936;0.246;2022-12-18T02:22:00;35;31;
64631;PMS5003;58358;50.936;0.246;2022-12-18T02:24:27;28;27;
64631;PMS5003;58358;50.936;0.246;2022-12-18T02:26:47;32;28;
64631;PMS5003;58358;50.936;0.246;2022-12-18T02:29:13;34;33;
64631;PMS5003;58358;50.936;0.246;2022-12-18T02:31:39;36;29;
64631;PMS5003;58358;50.936;0.246;2022-12-18T02:34:04;33;30;
64631;PMS5003;58358;50.936;0.246;2022-12-18T02:36:29;42;37;
64631;PMS5003;58358;50.936;0.246;2022-12-18T02:38:54;37;30;
64631;PMS5003;58358;50.936;0.246;2022-12-18T02:41:20;41;33;
64631;PMS5003;58358;50.936;0.246;2022-12-18T02:43:47;38;34;
64631;PMS5003;58358;50.936;0.246;2022-12-18T02:48:36;33;30;
64631;PMS5003;58358;50.936;0.246;2022-12-18T02:51:02;39;38;
64631;PMS5003;58358;50.936;0.246;2022-12-18T02:53:28;37;28;
64631;PMS5003;58358;50.936;0.246;2022-12-18T02:55:54;30;30;
64631;PMS5003;58358;50.936;0.246;2022-12-18T02:58:18;40;35;
64631;PMS5003;58358;50.936;0.246;2022-12-18T03:00:43;41;36;
64631;PMS5003;58358;50.936;0.246;2022-12-18T03:03:10;37;29;
64631;PMS5003;58358;50.936;0.246;2022-12-18T03:05:36;34;29;
64631;PMS5003;58358;50.936;0.246;2022-12-18T03:07:59;34;33;
64631;PMS5003;58358;50.936;0.246;2022-12-18T03:10:26;39;34;
64631;PMS5003;58358;50.936;0.246;2022-12-18T03:12:51;37;33;
64631;PMS5003;58358;50.936;0.246;2022-12-18T03:15:16;37;31;
64631;PMS5003;58358;50.936;0.246;2022-12-18T03:17:41;40;33;
64631;PMS5003;58358;50.936;0.246;2022-12-18T03:20:07;41;34;
64631;PMS5003;58358;50.936;0.246;2022-12-18T03:22:32;31;29;
64631;PMS5003;58358;50.936;0.246;2022-12-18T03:24:57;31;30;
64631;PMS5003;58358;50.936;0.246;2022-12-18T03:27:22;32;28;
64631;PMS5003;58358;50.936;0.246;2022-12-18T03:29:48;33;31;
64631;PMS5003;58358;50.936;0.246;2022-12-18T03:32:15;30;30;
64631;PMS5003;58358;50.936;0.246;2022-12-18T03:34:39;35;30;
64631;PMS5003;58358;50.936;0.246;2022-12-18T03:37:04;42;33;
64631;PMS5003;58358;50.936;0.246;2022-12-18T03:39:30;33;27;
64631;PMS5003;58358;50.936;0.246;2022-12-18T03:41:56;34;32;
64631;PMS5003;58358;50.936;0.246;2022-12-18T03:44:23;29;25;
64631;PMS5003;58358;50.936;0.246;2022-12-18T03:46:47;38;33;
64631;PMS5003;58358;50.936;0.246;2022-12-18T03:49:14;40;35;
64631;PMS5003;58358;50.936;0.246;2022-12-18T03:51:38;32;25;
64631;PMS5003;58358;50.936;0.246;2022-12-18T03:54:03;35;29;
64631;PMS5003;58358;50.936;0.246;2022-12-18T03:56:29;30;25;
64631;PMS5003;58358;50.936;0.246;2022-12-18T03:58:53;34;28;
64631;PMS5003;58358;50.936;0.246;2022-12-18T04:01:19;33;31;
64631;PMS5003;58358;50.936;0.246;2022-12-18T04:03:45;30;30;
64631;PMS5003;58358;50.936;0.246;2022-12-18T04:06:12;30;28;
64631;PMS5003;58358;50.936;0.246;2022-12-18T04:08:35;35;31;
64631;PMS5003;58358;50.936;0.246;2022-12-18T04:11:00;29;26;
64631;PMS5003;58358;50.936;0.246;2022-12-18T04:13:27;40;28;
64631;PMS5003;58358;50.936;0.246;2022-12-18T04:15:52;39;35;
64631;PMS5003;58358;50.936;0.246;2022-12-18T04:18:17;38;33;
64631;PMS5003;58358;50.936;0.246;2022-12-18T04:20:42;29;28;
64631;PMS5003;58358;50.936;0.246;2022-12-18T04:23:07;30;30;
64631;PMS5003;58358;50.936;0.246;2022-12-18T04:25:33;30;27;
64631;PMS5003;58358;50.936;0.246;2022-12-18T04:27:58;34;31;
64631;PMS5003;58358;50.936;0.246;2022-12-18T04:30:24;35;33;
64631;PMS5003;58358;50.936;0.246;2022-12-18T04:32:50;41;34;
64631;PMS5003;58358;50.936;0.246;2022-12-18T04:35:15;30;29;
64631;PMS5003;58358;50.936;0.246;2022-12-18T04:37:40;31;26;
64631;PMS5003;58358;50.936;0.246;2022-12-18T04:40:06;34;31;
64631;PMS5003;58358;50.936;0.246;2022-12-18T04:42:31;33;29;
64631;PMS5003;58358;50.936;0.246;2022-12-18T04:44:57;34;34;
64631;PMS5003;58358;50.936;0.246;2022-12-18T04:47:23;29;27;
64631;PMS5003;58358;50.936;0.246;2022-12-18T04:49:48;43;35;
64631;PMS5003;58358;50.936;0.246;2022-12-18T04:52:13;29;26;
64631;PMS5003;58358;50.936;0.246;2022-12-18T04:54:39;36;31;
64631;PMS5003;58358;50.936;0.246;2022-12-18T04:57:03;37;31;
64631;PMS5003;58358;50.936;0.246;2022-12-18T04:59:28;37;28;
64631;PMS5003;58358;50.936;0.246;2022-12-18T05:01:54;37;34;
64631;PMS5003;58358;50.936;0.246;2022-12-18T05:04:19;40;35;
64631;PMS5003;58358;50.936;0.246;2022-12-18T05:06:44;32;29;
64631;PMS5003;58358;50.936;0.246;2022-12-18T05:09:10;39;34;
64631;PMS5003;58358;50.936;0.246;2022-12-18T05:11:35;33;29;
64631;PMS5003;58358;50.936;0.246;2022-12-18T05:14:00;43;36;
64631;PMS5003;58358;50.936;0.246;2022-12-18T05:16:26;39;38;
64631;PMS5003;58358;50.936;0.246;2022-12-18T05:18:51;35;33;
64631;PMS5003;58358;50.936;0.246;2022-12-18T05:21:17;32;30;
64631;PMS5003;58358;50.936;0.246;2022-12-18T05:23:42;42;32;
64631;PMS5003;58358;50.936;0.246;2022-12-18T05:26:08;34;31;
64631;PMS5003;58358;50.936;0.246;2022-12-18T05:28:33;39;36;
64631;PMS5003;58358;50.936;0.246;2022-12-18T05:30:58;36;30;
64631;PMS5003;58358;50.936;0.246;2022-12-18T05:33:24;35;30;
64631;PMS5003;58358;50.936;0.246;2022-12-18T05:35:50;32;31;
64631;PMS5003;58358;50.936;0.246;2022-12-18T05:38:15;40;35;
64631;PMS5003;58358;50.936;0.246;2022-12-18T05:40:41;39;31;
64631;PMS5003;58358;50.936;0.246;2022-12-18T05:43:05;44;37;
64631;PMS5003;58358;50.936;0.246;2022-12-18T05:45:32;40;38;
64631;PMS5003;58358;50.936;0.246;2022-12-18T05:47:55;45;41;
64631;PMS5003;58358;50.936;0.246;2022-12-18T05:50:21;30;30;
64631;PMS5003;58358;50.936;0.246;2022-12-18T05:52:46;35;33;
64631;PMS5003;58358;50.936;0.246;2022-12-18T05:55:12;44;39;
64631;PMS5003;58358;50.936;0.246;2022-12-18T05:57:37;43;35;
64631;PMS5003;58358;50.936;0.246;2022-12-18T06:00:03;43;38;
64631;PMS5003;58358;50.936;0.246;2022-12-18T06:02:28;44;35;
64631;PMS5003;58358;50.936;0.246;2022-12-18T06:04:53;48;39;
64631;PMS5003;58358;50.936;0.246;2022-12-18T06:07:19;37;33;
64631;PMS5003;58358;50.936;0.246;2022-12-18T06:09:46;47;46;
64631;PMS5003;58358;50.936;0.246;2022-12-18T06:12:10;38;33;
64631;PMS5003;58358;50.936;0.246;2022-12-18T06:14:35;39;38;
64631;PMS5003;58358;50.936;0.246;2022-12-18T06:17:01;46;42;
64631;PMS5003;58358;50.936;0.246;2022-12-18T06:19:26;42;37;
64631;PMS5003;58358;50.936;0.246;2022-12-18T06:21:52;46;37;
64631;PMS5003;58358;50.936;0.246;2022-12-18T06:24:18;47;45;
64631;PMS5003;58358;50.936;0.246;2022-12-18T06:26:43;46;42;
64631;PMS5003;58358;50.936;0.246;2022-12-18T06:29:08;57;46;
64631;PMS5003;58358;50.936;0.246;2022-12-18T06:31:33;46;38;
64631;PMS5003;58358;50.936;0.246;2022-12-18T06:33:59;58;47;
64631;PMS5003;58358;50.936;0.246;2022-12-18T06:36:24;50;48;
64631;PMS5003;58358;50.936;0.246;2022-12-18T06:38:50;50;46;
64631;PMS5003;58358;50.936;0.246;2022-12-18T06:41:17;45;42;
64631;PMS5003;58358;50.936;0.246;2022-12-18T06:43:40;53;48;
64631;PMS5003;58358;50.936;0.246;2022-12-18T06:46:06;60;50;
64631;PMS5003;58358;50.936;0.246;2022-12-18T06:48:33;50;47;
64631;PMS5003;58358;50.936;0.246;2022-12-18T06:50:57;64;50;
64631;PMS5003;58358;50.936;0.246;2022-12-18T06:53:22;50;46;
64631;PMS5003;58358;50.936;0.246;2022-12-18T06:55:50;55;47;
64631;PMS5003;58358;50.936;0.246;2022-12-18T06:58:13;46;43;
64631;PMS5003;58358;50.936;0.246;2022-12-18T07:00:39;56;47;
64631;PMS5003;58358;50.936;0.246;2022-12-18T07:03:04;59;50;
64631;PMS5003;58358;50.936;0.246;2022-12-18T07:05:30;63;51;
64631;PMS5003;58358;50.936;0.246;2022-12-18T07:07:57;52;45;
64631;PMS5003;58358;50.936;0.246;2022-12-18T07:10:22;56;47;
64631;PMS5003;58358;50.936;0.246;2022-12-18T07:12:47;57;49;
64631;PMS5003;58358;50.936;0.246;2022-12-18T07:15:12;59;47;
64631;PMS5003;58358;50.936;0.246;2022-12-18T07:17:37;54;49;
64631;PMS5003;58358;50.936;0.246;2022-12-18T07:20:03;51;45;
64631;PMS5003;58358;50.936;0.246;2022-12-18T07:22:30;58;51;
64631;PMS5003;58358;50.936;0.246;2022-12-18T07:24:54;59;54;
64631;PMS5003;58358;50.936;0.246;2022-12-18T07:27:19;54;47;
64631;PMS5003;58358;50.936;0.246;2022-12-18T07:29:45;49;42;
64631;PMS5003;58358;50.936;0.246;2022-12-18T07:32:10;56;49;
64631;PMS5003;58358;50.936;0.246;2022-12-18T07:34:36;58;47;
64631;PMS5003;58358;50.936;0.246;2022-12-18T07:37:01;58;48;
64631;PMS5003;58358;50.936;0.246;2022-12-18T07:39:27;39;38;
64631;PMS5003;58358;50.936;0.246;2022-12-18T07:41:52;57;46;
64631;PMS5003;58358;50.936;0.246;2022-12-18T07:44:17;50;40;
64631;PMS5003;58358;50.936;0.246;2022-12-18T07:46:43;47;47;
64631;PMS5003;58358;50.936;0.246;2022-12-18T07:49:08;41;37;
64631;PMS5003;58358;50.936;0.246;2022-12-18T07:51:34;48;38;
64631;PMS5003;58358;50.936;0.246;2022-12-18T07:53:59;42;40;
64631;PMS5003;58358;50.936;0.246;2022-12-18T07:56:26;44;39;
64631;PMS5003;58358;50.936;0.246;2022-12-18T07:58:50;44;40;
64631;PMS5003;58358;50.936;0.246;2022-12-18T08:01:16;48;46;
64631;PMS5003;58358;50.936;0.246;2022-12-18T08:03:41;45;42;
64631;PMS5003;58358;50.936;0.246;2022-12-18T08:06:07;42;40;
64631;PMS5003;58358;50.936;0.246;2022-12-18T08:08:32;45;39;
64631;PMS5003;58358;50.936;0.246;2022-12-18T08:10:57;48;46;
64631;PMS5003;58358;50.936;0.246;2022-12-18T08:13:23;44;35;
64631;PMS5003;58358;50.936;0.246;2022-12-18T08:18:13;46;36;
64631;PMS5003;58358;50.936;0.246;2022-12-18T08:20:38;48;43;
64631;PMS5003;58358;50.936;0.246;2022-12-18T08:23:04;42;40;
64631;PMS5003;58358;50.936;0.246;2022-12-18T08:25:30;43;36;
64631;PMS5003;58358;50.936;0.246;2022-12-18T08:27:55;49;40;
64631;PMS5003;58358;50.936;0.246;2022-12-18T08:30:21;38;35;
64631;PMS5003;58358;50.936;0.246;2022-12-18T08:32:46;41;39;
64631;PMS5003;58358;50.936;0.246;2022-12-18T08:35:12;42;41;
64631;PMS5003;58358;50.936;0.246;2022-12-18T08:37:37;46;39;
64631;PMS5003;58358;50.936;0.246;2022-12-18T08:40:03;47;42;
64631;PMS5003;58358;50.936;0.246;2022-12-18T08:42:29;51;45;
64631;PMS5003;58358;50.936;0.246;2022-12-18T08:44:56;57;44;
64631;PMS5003;58358;50.936;0.246;2022-12-18T08:47:20;50;40;
64631;PMS5003;58358;50.936;0.246;2022-12-18T08:49:45;53;51;
64631;PMS5003;58358;50.936;0.246;2022-12-18T08:52:10;62;51;
64631;PMS5003;58358;50.936;0.246;2022-12-18T08:54:36;46;43;
64631;PMS5003;58358;50.936;0.246;2022-12-18T08:57:01;51;47;
64631;PMS5003;58358;50.936;0.246;2022-12-18T08:59:27;52;50;
64631;PMS5003;58358;50.936;0.246;2022-12-18T09:01:53;58;52;
64631;PMS5003;58358;50.936;0.246;2022-12-18T09:04:18;60;55;
64631;PMS5003;58358;50.936;0.246;2022-12-18T09:06:43;54;51;
64631;PMS5003;58358;50.936;0.246;2022-12-18T09:09:09;123;109;
64631;PMS5003;58358;50.936;0.246;2022-12-18T09:11:35;55;50;
64631;PMS5003;58358;50.936;0.246;2022-12-18T09:14:00;55;45;
64631;PMS5003;58358;50.936;0.246;2022-12-18T09:16:25;54;46;
64631;PMS5003;58358;50.936;0.246;2022-12-18T09:18:50;69;63;
64631;PMS5003;58358;50.936;0.246;2022-12-18T09:21:16;61;56;
64631;PMS5003;58358;50.936;0.246;2022-12-18T09:23:41;57;51;
64631;PMS5003;58358;50.936;0.246;2022-12-18T09:26:07;72;62;
64631;PMS5003;58358;50.936;0.246;2022-12-18T09:28:32;63;57;
64631;PMS5003;58358;50.936;0.246;2022-12-18T09:30:58;68;56;
64631;PMS5003;58358;50.936;0.246;2022-12-18T09:33:23;59;54;
64631;PMS5003;58358;50.936;0.246;2022-12-18T09:35:48;68;60;
64631;PMS5003;58358;50.936;0.246;2022-12-18T09:38:15;57;50;
64631;PMS5003;58358;50.936;0.246;2022-12-18T09:40:40;63;54;
64631;PMS5003;58358;50.936;0.246;2022-12-18T09:43:05;70;64;
64631;PMS5003;58358;50.936;0.246;2022-12-18T09:45:30;60;56;
64631;PMS5003;58358;50.936;0.246;2022-12-18T09:47:55;65;57;
64631;PMS5003;58358;50.936;0.246;2022-12-18T09:50:23;62;54;
64631;PMS5003;58358;50.936;0.246;2022-12-18T09:52:48;73;59;
64631;PMS5003;58358;50.936;0.246;2022-12-18T09:55:14;65;61;
64631;PMS5003;58358;50.936;0.246;2022-12-18T09:57:39;61;55;
64631;PMS5003;58358;50.936;0.246;2022-12-18T10:00:04;60;50;
64631;PMS5003;58358;50.936;0.246;2022-12-18T10:02:29;66;58;
64631;PMS5003;58358;50.936;0.246;2022-12-18T10:04:56;65;60;
64631;PMS5003;58358;50.936;0.246;2022-12-18T10:07:20;58;55;
64631;PMS5003;58358;50.936;0.246;2022-12-18T10:09:46;61;56;
64631;PMS5003;58358;50.936;0.246;2022-12-18T10:12:12;58;54;
64631;PMS5003;58358;50.936;0.246;2022-12-18T10:14:37;61;55;
64631;PMS5003;58358;50.936;0.246;2022-12-18T10:17:05;53;49;
64631;PMS5003;58358;50.936;0.246;2022-12-18T10:21:55;50;47;
64631;PMS5003;58358;50.936;0.246;2022-12-18T10:24:19;66;60;
64631;PMS5003;58358;50.936;0.246;2022-12-18T10:26:43;78;68;
64631;PMS5003;58358;50.936;0.246;2022-12-18T10:29:09;82;75;
64631;PMS5003;58358;50.936;0.246;2022-12-18T10:31:34;103;94;
64631;PMS5003;58358;50.936;0.246;2022-12-18T10:33:59;76;67;
64631;PMS5003;58358;50.936;0.246;2022-12-18T10:36:25;85;73;
64631;PMS5003;58358;50.936;0.246;2022-12-18T10:38:50;89;75;
64631;PMS5003;58358;50.936;0.246;2022-12-18T10:41:24;67;63;
64631;PMS5003;58358;50.936;0.246;2022-12-18T10:43:40;67;65;
64631;PMS5003;58358;50.936;0.246;2022-12-18T10:46:14;58;53;
64631;PMS5003;58358;50.936;0.246;2022-12-18T10:48:31;70;64;
64631;PMS5003;58358;50.936;0.246;2022-12-18T10:50:57;57;53;
64631;PMS5003;58358;50.936;0.246;2022-12-18T10:53:23;63;56;
64631;PMS5003;58358;50.936;0.246;2022-12-18T10:55:48;55;51;
64631;PMS5003;58358;50.936;0.246;2022-12-18T10:58:20;55;52;
64631;PMS5003;58358;50.936;0.246;2022-12-18T11:00:40;66;51;
64631;PMS5003;58358;50.936;0.246;2022-12-18T11:03:07;55;49;
64631;PMS5003;58358;50.936;0.246;2022-12-18T11:05:31;65;56;
64631;PMS5003;58358;50.936;0.246;2022-12-18T11:07:57;56;53;
64631;PMS5003;58358;50.936;0.246;2022-12-18T11:10:23;53;53;
64631;PMS5003;58358;50.936;0.246;2022-12-18T11:12:47;61;54;
64631;PMS5003;58358;50.936;0.246;2022-12-18T11:15:15;67;57;
64631;PMS5003;58358;50.936;0.246;2022-12-18T11:17:38;59;51;
64631;PMS5003;58358;50.936;0.246;2022-12-18T11:20:04;68;61;
64631;PMS5003;58358;50.936;0.246;2022-12-18T11:22:29;59;54;
64631;PMS5003;58358;50.936;0.246;2022-12-18T11:24:55;62;56;
64631;PMS5003;58358;50.936;0.246;2022-12-18T11:27:19;69;63;
64631;PMS5003;58358;50.936;0.246;2022-12-18T11:29:45;62;51;
64631;PMS5003;58358;50.936;0.246;2022-12-18T11:34:35;60;55;
64631;PMS5003;58358;50.936;0.246;2022-12-18T11:37:01;62;56;
64631;PMS5003;58358;50.936;0.246;2022-12-18T11:39:30;65;58;
64631;PMS5003;58358;50.936;0.246;2022-12-18T11:41:53;65;58;
64631;PMS5003;58358;50.936;0.246;2022-12-18T11:44:19;73;71;
64631;PMS5003;58358;50.936;0.246;2022-12-18T11:46:46;70;66;
64631;PMS5003;58358;50.936;0.246;2022-12-18T11:49:10;77;67;
64631;PMS5003;58358;50.936;0.246;2022-12-18T11:51:35;106;99;
64631;PMS5003;58358;50.936;0.246;2022-12-18T11:54:00;79;68;
64631;PMS5003;58358;50.936;0.246;2022-12-18T11:56:27;67;58;
64631;PMS5003;58358;50.936;0.246;2022-12-18T11:58:51;61;58;
64631;PMS5003;58358;50.936;0.246;2022-12-18T12:01:20;82;72;
64631;PMS5003;58358;50.936;0.246;2022-12-18T12:03:47;67;60;
64631;PMS5003;58358;50.936;0.246;2022-12-18T12:06:09;69;61;
64631;PMS5003;58358;50.936;0.246;2022-12-18T12:08:35;57;50;
64631;PMS5003;58358;50.936;0.246;2022-12-18T12:10:59;54;52;
64631;PMS5003;58358;50.936;0.246;2022-12-18T12:13:26;65;58;
64631;PMS5003;58358;50.936;0.246;2022-12-18T12:15:51;67;63;
64631;PMS5003;58358;50.936;0.246;2022-12-18T12:18:18;82;73;
64631;PMS5003;58358;50.936;0.246;2022-12-18T12:20:43;67;64;
64631;PMS5003;58358;50.936;0.246;2022-12-18T12:23:05;69;62;
64631;PMS5003;58358;50.936;0.246;2022-12-18T12:25:33;63;58;
64631;PMS5003;58358;50.936;0.246;2022-12-18T12:27:59;67;59;
64631;PMS5003;58358;50.936;0.246;2022-12-18T12:30:22;69;62;
64631;PMS5003;58358;50.936;0.246;2022-12-18T12:32:50;53;50;
64631;PMS5003;58358;50.936;0.246;2022-12-18T12:35:15;57;52;
64631;PMS5003;58358;50.936;0.246;2022-12-18T12:37:39;50;49;
64631;PMS5003;58358;50.936;0.246;2022-12-18T12:40:03;73;64;
64631;PMS5003;58358;50.936;0.246;2022-12-18T12:42:30;67;59;
64631;PMS5003;58358;50.936;0.246;2022-12-18T12:44:54;59;56;
64631;PMS5003;58358;50.936;0.246;2022-12-18T12:47:20;56;51;
64631;PMS5003;58358;50.936;0.246;2022-12-18T12:49:45;58;50;
64631;PMS5003;58358;50.936;0.246;2022-12-18T12:52:11;68;54;
64631;PMS5003;58358;50.936;0.246;2022-12-18T12:54:35;59;50;
64631;PMS5003;58358;50.936;0.246;2022-12-18T12:57:04;60;49;
64631;PMS5003;58358;50.936;0.246;2022-12-18T12:59:27;64;52;
64631;PMS5003;58358;50.936;0.246;2022-12-18T13:01:52;57;52;
64631;PMS5003;58358;50.936;0.246;2022-12-18T13:04:20;59;54;
64631;PMS5003;58358;50.936;0.246;2022-12-18T13:06:45;64;56;
64631;PMS5003;58358;50.936;0.246;2022-12-18T13:09:09;64;54;
64631;PMS5003;58358;50.936;0.246;2022-12-18T13:11:35;63;56;
64631;PMS5003;58358;50.936;0.246;2022-12-18T13:14:00;59;54;
64631;PMS5003;58358;50.936;0.246;2022-12-18T13:16:26;56;47;
64631;PMS5003;58358;50.936;0.246;2022-12-18T13:18:51;58;54;
64631;PMS5003;58358;50.936;0.246;2022-12-18T13:21:19;53;45;
64631;PMS5003;58358;50.936;0.246;2022-12-18T13:23:41;61;57;
64631;PMS5003;58358;50.936;0.246;2022-12-18T13:30:59;67;60;
64631;PMS5003;58358;50.936;0.246;2022-12-18T13:35:51;74;66;
64631;PMS5003;58358;50.936;0.246;2022-12-18T13:38:20;61;60;
64631;PMS5003;58358;50.936;0.246;2022-12-18T13:45:39;57;55;
64631;PMS5003;58358;50.936;0.246;2022-12-18T13:47:57;49;45;
64631;PMS5003;58358;50.936;0.246;2022-12-18T13:50:23;54;47;
64631;PMS5003;58358;50.936;0.246;2022-12-18T13:52:49;54;49;
64631;PMS5003;58358;50.936;0.246;2022-12-18T13:55:16;49;43;
64631;PMS5003;58358;50.936;0.246;2022-12-18T13:57:40;63;57;
64631;PMS5003;58358;50.936;0.246;2022-12-18T14:02:31;78;72;
64631;PMS5003;58358;50.936;0.246;2022-12-18T14:04:56;53;48;
64631;PMS5003;58358;50.936;0.246;2022-12-18T14:07:22;77;65;
64631;PMS5003;58358;50.936;0.246;2022-12-18T14:09:48;46;40;
64631;PMS5003;58358;50.936;0.246;2022-12-18T14:12:14;55;48;
64631;PMS5003;58358;50.936;0.246;2022-12-18T14:14:40;48;43;
64631;PMS5003;58358;50.936;0.246;2022-12-18T14:17:07;49;47;
64631;PMS5003;58358;50.936;0.246;2022-12-18T14:19:30;43;42;
64631;PMS5003;58358;50.936;0.246;2022-12-18T14:21:55;58;52;
64631;PMS5003;58358;50.936;0.246;2022-12-18T14:24:21;58;50;
64631;PMS5003;58358;50.936;0.246;2022-12-18T14:26:47;61;51;
64631;PMS5003;58358;50.936;0.246;2022-12-18T14:29:18;56;55;
64631;PMS5003;58358;50.936;0.246;2022-12-18T14:31:37;50;42;
64631;PMS5003;58358;50.936;0.246;2022-12-18T14:34:02;50;43;
64631;PMS5003;58358;50.936;0.246;2022-12-18T14:36:28;54;49;
64631;PMS5003;58358;50.936;0.246;2022-12-18T14:38:54;48;40;
64631;PMS5003;58358;50.936;0.246;2022-12-18T14:41:19;53;50;
64631;PMS5003;58358;50.936;0.246;2022-12-18T14:43:45;50;42;
64631;PMS5003;58358;50.936;0.246;2022-12-18T14:48:36;49;45;
64631;PMS5003;58358;50.936;0.246;2022-12-18T14:51:01;55;50;
64631;PMS5003;58358;50.936;0.246;2022-12-18T14:53:30;45;43;
64631;PMS5003;58358;50.936;0.246;2022-12-18T14:55:51;47;44;
64631;PMS5003;58358;50.936;0.246;2022-12-18T14:58:16;57;47;
64631;PMS5003;58358;50.936;0.246;2022-12-18T15:00:41;44;43;
64631;PMS5003;58358;50.936;0.246;2022-12-18T15:03:07;39;36;
64631;PMS5003;58358;50.936;0.246;2022-12-18T15:05:33;49;45;
64631;PMS5003;58358;50.936;0.246;2022-12-18T15:07:59;51;50;
64631;PMS5003;58358;50.936;0.246;2022-12-18T15:10:24;44;44;
64631;PMS5003;58358;50.936;0.246;2022-12-18T15:12:49;49;45;
64631;PMS5003;58358;50.936;0.246;2022-12-18T15:17:40;53;42;
64631;PMS5003;58358;50.936;0.246;2022-12-18T15:20:09;42;39;
64631;PMS5003;58358;50.936;0.246;2022-12-18T15:22:33;52;44;
64631;PMS5003;58358;50.936;0.246;2022-12-18T15:24:56;63;58;
64631;PMS5003;58358;50.936;0.246;2022-12-18T15:27:23;46;39;
64631;PMS5003;58358;50.936;0.246;2022-12-18T15:32:17;44;44;
64631;PMS5003;58358;50.936;0.246;2022-12-18T15:34:38;55;54;
64631;PMS5003;58358;50.936;0.246;2022-12-18T15:37:04;60;53;
64631;PMS5003;58358;50.936;0.246;2022-12-18T15:39:29;79;71;
64631;PMS5003;58358;50.936;0.246;2022-12-18T15:41:55;47;42;
64631;PMS5003;58358;50.936;0.246;2022-12-18T15:44:21;88;74;
64631;PMS5003;58358;50.936;0.246;2022-12-18T15:46:46;57;53;
64631;PMS5003;58358;50.936;0.246;2022-12-18T15:49:12;70;67;
64631;PMS5003;58358;50.936;0.246;2022-12-18T15:51:37;59;54;
64631;PMS5003;58358;50.936;0.246;2022-12-18T15:54:03;63;61;
64631;PMS5003;58358;50.936;0.246;2022-12-18T15:56:28;56;48;
64631;PMS5003;58358;50.936;0.246;2022-12-18T15:58:54;67;61;
64631;PMS5003;58358;50.936;0.246;2022-12-18T16:01:19;54;54;
64631;PMS5003;58358;50.936;0.246;2022-12-18T16:03:44;65;52;
64631;PMS5003;58358;50.936;0.246;2022-12-18T16:06:10;45;44;
64631;PMS5003;58358;50.936;0.246;2022-12-18T16:08:36;59;53;
64631;PMS5003;58358;50.936;0.246;2022-12-18T16:11:01;66;62;
64631;PMS5003;58358;50.936;0.246;2022-12-18T16:13:26;54;53;
64631;PMS5003;58358;50.936;0.246;2022-12-18T16:15:51;46;41;
64631;PMS5003;58358;50.936;0.246;2022-12-18T16:18:17;51;48;
64631;PMS5003;58358;50.936;0.246;2022-12-18T16:20:43;43;41;
64631;PMS5003;58358;50.936;0.246;2022-12-18T16:23:08;49;44;
64631;PMS5003;58358;50.936;0.246;2022-12-18T16:25:34;56;53;
64631;PMS5003;58358;50.936;0.246;2022-12-18T16:27:59;56;47;
64631;PMS5003;58358;50.936;0.246;2022-12-18T16:30:26;55;49;
64631;PMS5003;58358;50.936;0.246;2022-12-18T16:32:51;56;50;
64631;PMS5003;58358;50.936;0.246;2022-12-18T16:35:16;59;56;
64631;PMS5003;58358;50.936;0.246;2022-12-18T16:37:41;56;50;